Time;durP1;ratioP1;P1;durP2;ratioP2;P2;SDS_P1;SDS_P2;PMS_P1;PMS_P2;Temp;Humidity;BMP_temperature;BMP_pressure;BME280_temperature;BME280_humidity;BME280_pressure;Samples;Min_cycle;Max_cycle;Signal;HPM_P1;HPM_P2
2021/01/15 00:01:23;;;;;;;55.15;25.20;;;;;;;-0.61;92.13;100749.80;1687002;84;21175;-74
2021/01/15 00:03:50;;;;;;;45.00;23.92;;;;;;;-0.62;92.12;100748.11;1685244;83;21772;-74
2021/01/15 00:06:25;;;;;;;55.65;26.10;;;;;;;-0.60;92.12;100752.80;1679699;84;21147;-74
2021/01/15 00:08:53;;;;;;;49.60;22.48;;;;;;;-0.61;92.12;100754.58;1685787;84;21644;-74
2021/01/15 00:11:30;;;;;;;46.18;22.00;;;;;;;-0.61;92.12;100761.12;1656915;84;21937;-74
2021/01/15 00:14:00;;;;;;;53.95;24.32;;;;;;;-0.63;92.11;100762.97;1690042;84;21172;-75
2021/01/15 00:16:29;;;;;;;;;;;;;;;-0.62;92.10;100769.05;1700187;84;21540;-75
2021/01/15 00:18:57;;;;;;;43.48;22.70;;;;;;;-0.63;92.11;100770.83;1688169;84;20270;-75
2021/01/15 00:21:28;;;;;;;51.05;24.47;;;;;;;-0.62;92.12;100769.91;1685451;83;21243;-75
2021/01/15 00:23:58;;;;;;;50.75;23.87;;;;;;;-0.63;92.12;100772.14;1709825;82;21192;-75
2021/01/15 00:26:28;;;;;;;45.65;23.73;;;;;;;-0.63;92.13;100769.98;1694196;84;21176;-75
2021/01/15 00:28:55;;;;;;;39.98;22.82;;;;;;;-0.64;92.12;100778.33;1706238;83;21191;-75
2021/01/15 00:31:33;;;;;;;38.83;20.77;;;;;;;-0.62;92.13;100779.07;1673489;85;21208;-75
2021/01/15 00:34:00;;;;;;;47.20;21.90;;;;;;;-0.59;92.12;100780.20;1663659;86;21235;-76
2021/01/15 00:36:27;;;;;;;46.42;21.60;;;;;;;-0.58;92.11;100787.13;1671705;84;21172;-75
2021/01/15 00:38:55;;;;;;;37.17;19.17;;;;;;;-0.58;92.13;100780.58;1706422;84;22077;-75
2021/01/15 00:41:22;;;;;;;41.90;21.37;;;;;;;-0.57;92.15;100787.52;1701303;84;21477;-75
2021/01/15 00:43:49;;;;;;;41.10;20.75;;;;;;;-0.59;92.13;100782.81;1701336;84;21157;-75
2021/01/15 00:49:04;;;;;;;40.85;21.45;;;;;;;-0.51;92.16;100782.37;1814894;77;22861;-75
2021/01/15 00:51:31;;;;;;;41.53;21.87;;;;;;;-0.56;92.15;100789.64;1787162;80;21166;-75
2021/01/15 00:53:58;;;;;;;44.33;23.18;;;;;;;-0.58;92.14;100783.20;1786224;80;21519;-75
2021/01/15 00:56:24;;;;;;;48.08;23.45;;;;;;;-0.58;92.14;100789.75;1786924;79;21166;-75
2021/01/15 00:58:51;;;;;;;49.77;25.88;;;;;;;-0.57;92.16;100791.44;1787065;80;21612;-75
2021/01/15 01:01:19;;;;;;;41.53;22.13;;;;;;;-0.61;92.15;100791.24;1787103;80;21170;-75
2021/01/15 01:03:47;;;;;;;55.67;28.47;;;;;;;-0.62;92.17;100789.55;1787216;80;21131;-75
2021/01/15 01:06:17;;;;;;;44.10;22.58;;;;;;;-0.64;92.16;100786.65;1783248;80;21281;-75
2021/01/15 01:08:44;;;;;;;45.33;23.00;;;;;;;-0.66;92.14;100791.95;1757957;80;21183;-74
2021/01/15 01:11:21;;;;;;;43.08;21.82;;;;;;;-0.68;92.13;100788.60;1779739;80;21195;-74
2021/01/15 01:13:52;;;;;;;39.63;20.88;;;;;;;-0.69;92.14;100789.52;1786902;80;21226;-74
2021/01/15 01:16:19;;;;;;;48.33;22.52;;;;;;;-0.71;92.14;100785.32;1787295;80;21138;-74
2021/01/15 01:18:45;;;;;;;38.83;23.05;;;;;;;-0.72;92.12;100789.70;1786875;79;21267;-74
2021/01/15 01:21:12;;;;;;;42.17;22.87;;;;;;;-0.73;92.11;100781.92;1787066;80;21584;-75
2021/01/15 01:23:38;;;;;;;42.75;22.77;;;;;;;-0.74;92.12;100791.55;1786314;80;21187;-74
2021/01/15 01:26:05;;;;;;;53.17;25.92;;;;;;;-0.74;92.10;100788.94;1787210;80;21117;-74
2021/01/15 01:28:31;;;;;;;64.75;31.95;;;;;;;-0.73;92.10;100786.70;1757096;80;21540;-74
2021/01/15 01:30:58;;;;;;;51.58;24.95;;;;;;;-0.73;92.11;100785.86;1755804;81;21194;-74
2021/01/15 01:33:25;;;;;;;59.93;25.77;;;;;;;-0.74;92.11;100788.94;1755625;81;21621;-74
2021/01/15 01:35:51;;;;;;;52.05;24.98;;;;;;;-0.74;92.09;100785.00;1753722;81;21600;-74
2021/01/15 01:38:17;;;;;;;47.83;22.05;;;;;;;-0.75;92.10;100783.80;1755497;81;21130;-74
2021/01/15 01:40:44;;;;;;;45.60;22.20;;;;;;;-0.74;92.09;100794.66;1727243;81;21151;-74
2021/01/15 01:43:11;;;;;;;46.55;21.20;;;;;;;-0.74;92.09;100796.79;1725918;83;21191;-74
2021/01/15 01:45:38;;;;;;;48.05;24.67;;;;;;;-0.73;92.10;100784.09;1725223;81;21580;-74
2021/01/15 01:48:06;;;;;;;53.95;26.37;;;;;;;-0.72;92.10;100787.09;1728409;82;21164;-75
2021/01/15 01:50:32;;;;;;;55.05;26.73;;;;;;;-0.73;92.10;100784.55;1731378;82;21127;-75
2021/01/15 01:53:02;;;;;;;73.25;34.50;;;;;;;-0.73;92.08;100791.94;1704286;81;21170;-74
2021/01/15 01:55:28;;;;;;;56.00;27.32;;;;;;;-0.73;92.08;100798.95;1759332;81;21218;-74
2021/01/15 01:57:54;;;;;;;79.95;32.55;;;;;;;-0.75;92.09;100795.12;1737635;81;21162;-75
2021/01/15 02:00:22;;;;;;;61.40;28.52;;;;;;;-0.74;92.08;100791.55;1746371;81;21658;-75
2021/01/15 02:02:48;;;;;;;53.38;26.27;;;;;;;-0.75;92.08;100792.51;1758783;81;21638;-74
2021/01/15 02:05:16;;;;;;;54.83;25.35;;;;;;;-0.74;92.10;100792.86;1748756;81;21176;-74
2021/01/15 02:07:42;;;;;;;64.65;28.75;;;;;;;-0.74;92.08;100785.00;1745552;81;21215;-75
2021/01/15 02:10:40;;;;;;;57.62;26.60;;;;;;;-0.75;92.10;100791.20;1743248;81;21154;-75
2021/01/15 02:13:18;;;;;;;47.30;23.98;;;;;;;-0.74;92.09;100786.31;1731531;82;21179;-75
2021/01/15 02:15:49;;;;;;;55.25;26.02;;;;;;;-0.70;92.10;100790.45;1731418;81;21110;-75
2021/01/15 02:18:34;;;;;;;52.45;27.00;;;;;;;-0.68;92.11;100790.38;1705567;81;21667;-75
2021/01/15 02:21:30;;;;;;;86.75;39.10;;;;;;;-0.66;92.12;100791.95;1731534;82;22098;-75
2021/01/15 02:24:19;;;;;;;50.38;26.45;;;;;;;-0.64;92.12;100794.05;1731498;81;21149;-75
2021/01/15 02:27:24;;;;;;;43.70;21.27;;;;;;;-0.65;92.13;100788.88;1700426;82;21610;-75
2021/01/15 02:30:19;;;;;;;42.48;20.65;;;;;;;-0.67;92.13;100792.88;1730096;82;21161;-75
2021/01/15 02:33:11;;;;;;;51.95;23.27;;;;;;;-0.68;92.12;100796.45;1760530;80;21126;-75
2021/01/15 02:35:54;;;;;;;42.00;19.87;;;;;;;-0.68;92.13;100795.15;1761887;81;21250;-75
2021/01/15 02:38:29;;;;;;;44.85;19.73;;;;;;;-0.67;92.12;100794.19;1761565;81;21183;-75
2021/01/15 02:41:06;;;;;;;42.95;19.10;;;;;;;-0.66;92.12;100791.11;1745696;80;21182;-75
2021/01/15 02:43:33;;;;;;;42.20;22.62;;;;;;;-0.65;92.12;100795.42;1731666;81;21184;-75
2021/01/15 02:46:01;;;;;;;45.48;23.62;;;;;;;-0.66;92.14;100793.73;1731438;81;21171;-75
2021/01/15 02:48:30;;;;;;;44.18;23.60;;;;;;;-0.69;92.13;100793.45;1758648;81;21199;-75
2021/01/15 02:50:58;;;;;;;49.93;22.32;;;;;;;-0.68;92.12;100805.63;1743377;81;21600;-75
2021/01/15 02:53:25;;;;;;;40.48;20.08;;;;;;;-0.67;92.12;100805.16;1727303;81;21115;-75
2021/01/15 02:55:51;;;;;;;38.02;19.20;;;;;;;-0.68;92.13;100809.55;1726249;81;21175;-75
2021/01/15 02:58:17;;;;;;;39.00;20.55;;;;;;;-0.67;92.13;100801.23;1726334;81;21623;-75
2021/01/15 03:00:44;;;;;;;34.65;19.45;;;;;;;-0.65;92.13;100814.61;1756155;81;21214;-75
2021/01/15 03:03:28;;;;;;;43.78;22.77;;;;;;;-0.62;92.13;100817.05;1755882;81;21162;-74
2021/01/15 03:06:08;;;;;;;42.93;23.45;;;;;;;-0.60;92.12;100811.73;1756065;81;21234;-75
2021/01/15 03:08:35;;;;;;;42.53;22.73;;;;;;;-0.60;92.14;100809.92;1741755;81;21485;-75
2021/01/15 03:11:01;;;;;;;46.00;22.67;;;;;;;-0.61;92.15;100813.50;1756011;81;21123;-75
2021/01/15 03:13:29;;;;;;;41.75;20.17;;;;;;;-0.63;92.16;100817.97;1756140;81;21139;-75
2021/01/15 03:15:58;;;;;;;39.98;20.25;;;;;;;-0.63;92.16;100820.58;1755897;81;21178;-75
2021/01/15 03:18:25;;;;;;;34.60;19.40;;;;;;;-0.63;92.16;100819.27;1756113;81;21123;-75
2021/01/15 03:20:52;;;;;;;37.73;20.65;;;;;;;-0.60;92.18;100817.78;1755879;81;21584;-75
2021/01/15 03:23:18;;;;;;;42.93;22.82;;;;;;;-0.59;92.17;100812.93;1755763;80;21273;-75
2021/01/15 03:25:45;;;;;;;38.17;22.45;;;;;;;-0.58;92.19;100808.54;1755962;81;21960;-75
2021/01/15 03:28:12;;;;;;;42.53;20.92;;;;;;;-0.60;92.18;100809.11;1730494;81;21127;-75
2021/01/15 03:30:38;;;;;;;35.80;20.75;;;;;;;-0.62;92.20;100803.10;1725841;83;21194;-75
2021/01/15 03:33:05;;;;;;;40.08;22.58;;;;;;;-0.62;92.21;100803.95;1725937;82;21718;-75
2021/01/15 03:35:33;;;;;;;47.60;25.32;;;;;;;-0.61;92.20;100803.03;1726093;81;21152;-75
2021/01/15 03:38:11;;;;;;;44.30;23.85;;;;;;;-0.62;92.19;100798.71;1751709;81;21147;-75
2021/01/15 03:40:41;;;;;;;36.15;21.15;;;;;;;-0.64;92.20;100794.05;1754606;81;21186;-75
2021/01/15 03:43:21;;;;;;;;;;;;;;;-0.65;92.21;100792.34;1758496;81;21151;-75
2021/01/15 03:45:48;;;;;;;46.48;21.42;;;;;;;-0.64;92.23;100811.06;1755990;81;20416;-75
2021/01/15 03:48:16;;;;;;;39.13;21.40;;;;;;;-0.63;92.21;100816.66;1756099;81;21133;-75
2021/01/15 03:50:43;;;;;;;43.35;21.87;;;;;;;-0.64;92.21;100814.99;1755590;81;22054;-75
2021/01/15 03:53:11;;;;;;;39.70;20.95;;;;;;;-0.63;92.21;100820.58;1755846;81;21147;-75
2021/01/15 03:55:38;;;;;;;33.48;18.87;;;;;;;-0.63;92.19;100823.20;1735130;81;21563;-75
2021/01/15 03:58:04;;;;;;;36.58;19.67;;;;;;;-0.63;92.20;100827.13;1725932;83;21147;-75
2021/01/15 04:00:30;;;;;;;33.80;17.98;;;;;;;-0.62;92.19;100826.20;1725837;81;21607;-75
2021/01/15 04:02:57;;;;;;;39.05;19.30;;;;;;;-0.61;92.18;100823.98;1725997;81;22053;-75
2021/01/15 04:05:23;;;;;;;34.90;19.25;;;;;;;-0.61;92.20;100825.75;1725775;83;21168;-75
2021/01/15 04:07:49;;;;;;;35.63;19.92;;;;;;;-0.60;92.20;100824.83;1725819;83;21615;-75
2021/01/15 04:10:18;;;;;;;36.42;18.87;;;;;;;-0.60;92.19;100823.02;1725919;83;21619;-75
2021/01/15 04:12:44;;;;;;;35.60;20.05;;;;;;;-0.60;92.19;100815.66;1725835;82;21112;-75
2021/01/15 04:15:15;;;;;;;36.73;19.75;;;;;;;-0.63;92.22;100803.56;1725730;81;21260;-75
2021/01/15 04:17:41;;;;;;;34.75;19.90;;;;;;;-0.59;92.21;100801.15;1725808;81;21143;-75
2021/01/15 04:20:10;;;;;;;37.98;19.35;;;;;;;-0.58;92.21;100802.84;1725686;83;21183;-75
2021/01/15 04:22:38;;;;;;;31.23;18.20;;;;;;;-0.59;92.21;100798.53;1735661;81;21564;-75
2021/01/15 04:25:06;;;;;;;31.33;18.05;;;;;;;-0.61;92.24;100792.55;1755786;80;21608;-75
2021/01/15 04:27:33;;;;;;;38.65;19.60;;;;;;;-0.62;92.24;100797.41;1755695;80;21159;-75
2021/01/15 04:30:04;;;;;;;32.95;18.87;;;;;;;-0.61;92.24;100798.25;1755602;81;21210;-75
2021/01/15 04:32:33;;;;;;;31.52;17.37;;;;;;;-0.58;92.27;100801.99;1755923;81;21572;-75
2021/01/15 04:35:01;;;;;;;30.60;18.20;;;;;;;-0.53;92.24;100800.78;1755966;80;21171;-75
2021/01/15 04:37:27;;;;;;;37.73;19.05;;;;;;;-0.47;92.24;100801.37;1755825;81;21564;-75
2021/01/15 04:39:54;;;;;;;34.63;19.57;;;;;;;-0.42;92.26;100802.77;1755979;81;21190;-75
2021/01/15 04:42:20;;;;;;;52.25;25.17;;;;;;;-0.36;92.25;100797.19;1755782;81;21618;-75
2021/01/15 04:44:47;;;;;;;59.38;29.02;;;;;;;-0.34;92.26;100799.70;1755963;80;21154;-75
2021/01/15 04:47:14;;;;;;;70.32;31.77;;;;;;;-0.34;92.27;100795.77;1755851;81;21135;-75
2021/01/15 04:49:40;;;;;;;76.75;34.05;;;;;;;-0.36;92.29;100790.64;1759103;81;21627;-74
2021/01/15 04:52:14;;;;;;;57.60;29.02;;;;;;;-0.38;92.29;100792.49;1731236;81;21260;-75
2021/01/15 04:54:42;;;;;;;58.42;25.23;;;;;;;-0.40;92.30;100789.59;1731123;82;21198;-74
2021/01/15 04:57:11;;;;;;;41.37;22.58;;;;;;;-0.42;92.32;100792.29;1731236;81;21230;-74
2021/01/15 04:59:45;;;;;;;45.25;21.40;;;;;;;-0.42;92.29;100795.41;1731069;81;21616;-75
2021/01/15 05:02:15;;;;;;;31.87;17.67;;;;;;;-0.40;92.30;100800.92;1731357;81;21143;-75
2021/01/15 05:04:41;;;;;;;37.60;20.10;;;;;;;-0.40;92.29;100804.85;1730835;82;21174;-74
2021/01/15 05:07:09;;;;;;;40.45;20.45;;;;;;;-0.41;92.29;100803.62;1731038;82;21499;-74
2021/01/15 05:09:45;;;;;;;41.30;22.05;;;;;;;-0.40;92.28;100802.69;1731173;81;21171;-75
2021/01/15 05:12:16;;;;;;;40.90;21.68;;;;;;;-0.43;92.26;100796.33;1730213;81;21162;-75
2021/01/15 05:14:49;;;;;;;45.10;22.58;;;;;;;-0.45;92.27;100800.33;1731393;81;21587;-75
2021/01/15 05:17:16;;;;;;;43.95;21.55;;;;;;;-0.42;92.26;100796.72;1748703;81;21203;-75
2021/01/15 05:19:43;;;;;;;41.02;22.62;;;;;;;-0.41;92.26;100797.06;1761123;81;21162;-75
2021/01/15 05:22:12;;;;;;;41.35;21.37;;;;;;;-0.45;92.25;100798.17;1760982;80;21564;-75
2021/01/15 05:24:39;;;;;;;40.83;21.85;;;;;;;-0.49;92.26;100805.87;1761330;81;21173;-75
2021/01/15 05:30:21;;;;;;;34.13;17.80;;;;;;;-0.46;92.23;100817.47;1761536;80;21253;-75
2021/01/15 05:32:47;;;;;;;37.45;18.80;;;;;;;-0.44;92.23;100816.90;1761475;81;21662;-75
2021/01/15 05:35:13;;;;;;;37.13;20.80;;;;;;;-0.43;92.22;100829.08;1761561;81;21147;-75
2021/01/15 05:37:40;;;;;;;54.25;25.50;;;;;;;-0.43;92.24;100830.38;1761476;81;21135;-75
2021/01/15 05:40:07;;;;;;;44.77;23.20;;;;;;;-0.49;92.22;100824.20;1727157;81;21214;-75
2021/01/15 05:42:49;;;;;;;43.23;24.45;;;;;;;-0.45;92.20;100824.38;1761779;81;21206;-74
2021/01/15 05:45:16;;;;;;;44.93;21.12;;;;;;;-0.42;92.18;100829.46;1742019;81;21198;-74
2021/01/15 05:47:44;;;;;;;45.90;23.07;;;;;;;-0.41;92.16;100827.20;1731310;81;21138;-74
2021/01/15 05:50:12;;;;;;;45.25;22.55;;;;;;;-0.42;92.19;100825.53;1731494;81;21567;-75
2021/01/15 05:52:56;;;;;;;35.65;19.32;;;;;;;-0.40;92.18;100830.20;1731201;81;21619;-75
2021/01/15 05:55:23;;;;;;;36.10;19.40;;;;;;;-0.36;92.19;100829.09;1731376;81;22125;-75
2021/01/15 05:57:50;;;;;;;40.98;19.98;;;;;;;-0.33;92.17;100832.84;1731317;81;21579;-75
2021/01/15 06:00:31;;;;;;;36.50;19.73;;;;;;;-0.29;92.17;100831.73;1731274;82;21139;-75
2021/01/15 06:02:57;;;;;;;72.42;32.28;;;;;;;-0.30;92.18;100835.27;1731453;81;21163;-75
2021/01/15 06:05:24;;;;;;;109.92;50.52;;;;;;;-0.30;92.20;100835.27;1731278;82;21162;-75
2021/01/15 06:07:55;;;;;;;141.10;48.98;;;;;;;-0.31;92.22;100833.58;1753878;81;21184;-75
2021/01/15 06:10:23;;;;;;;50.70;25.65;;;;;;;-0.31;92.21;100837.51;1750253;81;21183;-75
2021/01/15 06:12:50;;;;;;;97.20;42.90;;;;;;;-0.32;92.21;100847.63;1731135;82;21178;-74
2021/01/15 06:15:17;;;;;;;59.70;30.23;;;;;;;-0.34;92.18;100840.31;1731502;81;21154;-75
2021/01/15 06:17:47;;;;;;;50.60;25.85;;;;;;;-0.33;92.18;100843.31;1731022;81;21131;-74
2021/01/15 06:20:19;;;;;;;59.85;29.70;;;;;;;-0.35;92.19;100841.27;1731089;82;21545;-74
2021/01/15 06:22:54;;;;;;;66.22;35.52;;;;;;;-0.34;92.18;100846.86;1731266;82;21178;-74
2021/01/15 06:25:32;;;;;;;49.00;27.65;;;;;;;-0.34;92.17;100842.93;1731433;81;21580;-74
2021/01/15 06:30:41;;;;;;;70.60;34.73;;;;;;;-0.28;92.19;100843.91;1852164;77;23314;-75
2021/01/15 06:33:14;;;;;;;72.20;32.45;;;;;;;-0.34;92.17;100846.86;1824290;78;21148;-74
2021/01/15 06:35:47;;;;;;;102.07;40.45;;;;;;;-0.35;92.17;100853.06;1816704;78;21009;-75
2021/01/15 06:38:22;;;;;;;86.40;38.35;;;;;;;-0.35;92.18;100855.18;1791798;80;21623;-74
2021/01/15 06:40:51;;;;;;;78.47;36.70;;;;;;;-0.39;92.17;100847.61;1791513;79;21170;-75
2021/01/15 06:43:33;;;;;;;55.08;26.50;;;;;;;-0.40;92.17;100857.70;1791759;79;21013;-75
2021/01/15 06:46:04;;;;;;;51.28;24.87;;;;;;;-0.42;92.17;100858.28;1798499;78;21635;-75
2021/01/15 06:48:38;;;;;;;57.98;26.80;;;;;;;-0.45;92.13;100854.50;1810976;78;22077;-75
2021/01/15 06:51:05;;;;;;;118.72;42.85;;;;;;;-0.45;92.13;100851.88;1820438;77;21164;-75
2021/01/15 06:53:34;;;;;;;118.20;43.52;;;;;;;-0.45;92.09;100862.36;1817043;78;21155;-74
2021/01/15 06:56:07;;;;;;;54.77;23.85;;;;;;;-0.44;92.08;100864.91;1817799;78;21187;-74
2021/01/15 06:58:42;;;;;;;55.08;25.85;;;;;;;-0.43;92.06;100855.27;1792080;78;21573;-75
2021/01/15 07:01:24;;;;;;;55.52;25.45;;;;;;;-0.43;92.04;100857.89;1791588;79;22187;-75
2021/01/15 07:04:01;;;;;;;73.55;31.82;;;;;;;-0.43;92.04;100861.82;1759823;81;26603;-75
2021/01/15 07:06:33;;;;;;;85.95;38.23;;;;;;;-0.45;92.04;100855.80;1759495;81;21628;-75
2021/01/15 07:09:03;;;;;;;79.10;34.73;;;;;;;-0.43;92.02;100857.89;1759368;80;21218;-75
2021/01/15 07:11:30;;;;;;;53.02;23.83;;;;;;;-0.44;92.03;100862.74;1737259;81;21179;-74
2021/01/15 07:14:02;;;;;;;57.58;23.35;;;;;;;-0.45;92.04;100858.42;1770283;80;21160;-74
2021/01/15 07:16:32;;;;;;;42.78;20.12;;;;;;;-0.49;92.02;100859.56;1741172;81;21632;-74
2021/01/15 07:19:15;;;;;;;30.97;14.83;;;;;;;-0.53;92.01;100855.78;1744811;80;21168;-75
2021/01/15 07:22:04;;;;;;;34.30;16.85;;;;;;;-0.53;92.01;100853.16;1754366;80;21181;-75
2021/01/15 07:24:33;;;;;;;26.45;13.40;;;;;;;-0.54;91.99;100867.22;1745634;81;21184;-75
2021/01/15 07:27:00;;;;;;;36.23;17.70;;;;;;;-0.54;91.99;100858.05;1741454;81;21227;-75
2021/01/15 07:29:27;;;;;;;66.30;32.55;;;;;;;-0.54;92.00;100868.53;1731380;81;21192;-75
2021/01/15 07:31:57;;;;;;;99.50;51.85;;;;;;;-0.54;92.01;100865.91;1729591;81;21217;-74
2021/01/15 07:34:24;;;;;;;78.60;39.05;;;;;;;-0.51;92.02;100863.56;1732982;81;21585;-74
2021/01/15 07:36:51;;;;;;;49.53;21.90;;;;;;;-0.51;92.03;100867.03;1733025;81;21156;-75
2021/01/15 07:39:22;;;;;;;46.00;20.10;;;;;;;-0.53;92.03;100868.06;1735739;81;21274;-74
2021/01/15 07:41:53;;;;;;;29.35;15.30;;;;;;;-0.55;92.01;100869.45;1733338;81;21184;-75
2021/01/15 07:44:36;;;;;;;28.40;14.53;;;;;;;-0.55;92.02;100865.52;1730561;81;21150;-75
2021/01/15 07:47:02;;;;;;;23.38;13.08;;;;;;;-0.55;92.01;100868.14;1730940;81;21224;-74
2021/01/15 07:49:45;;;;;;;32.53;17.95;;;;;;;-0.57;92.01;100872.63;1729943;81;21164;-75
2021/01/15 07:52:11;;;;;;;32.98;15.28;;;;;;;-0.53;92.03;100871.50;1730804;81;22042;-74
2021/01/15 07:55:00;;;;;;;24.95;12.43;;;;;;;-0.53;92.01;100866.27;1732054;81;21646;-75
2021/01/15 07:57:27;;;;;;;30.85;14.03;;;;;;;-0.54;92.01;100872.45;1728857;81;21158;-75
2021/01/15 07:59:54;;;;;;;27.22;14.28;;;;;;;-0.52;92.02;100872.34;1731015;81;21202;-75
2021/01/15 08:02:21;;;;;;;34.80;17.30;;;;;;;-0.52;92.02;100870.58;1729825;81;21172;-75
2021/01/15 08:04:49;;;;;;;30.77;17.80;;;;;;;-0.53;92.00;100879.85;1733520;81;22115;-75
2021/01/15 08:07:35;;;;;;;31.05;16.20;;;;;;;-0.51;92.01;100877.52;1730902;81;21193;-75
2021/01/15 08:10:02;;;;;;;30.90;17.37;;;;;;;-0.49;92.02;100877.90;1730918;81;21185;-75
2021/01/15 08:12:37;;;;;;;31.77;15.45;;;;;;;-0.51;92.02;100872.27;1729555;81;21188;-75
2021/01/15 08:15:05;;;;;;;55.30;22.07;;;;;;;-0.49;92.03;100884.45;1736382;81;21164;-75
2021/01/15 08:17:32;;;;;;;31.75;17.42;;;;;;;-0.49;92.01;100885.76;1726369;81;21707;-75
2021/01/15 08:19:58;;;;;;;26.40;13.78;;;;;;;-0.49;92.00;100885.76;1727187;83;21621;-75
2021/01/15 08:22:24;;;;;;;29.82;13.60;;;;;;;-0.47;92.00;100882.57;1727264;83;21196;-74
2021/01/15 08:24:51;;;;;;;25.92;12.28;;;;;;;-0.48;91.99;100877.80;1730686;81;21196;-75
2021/01/15 08:27:18;;;;;;;26.37;13.10;;;;;;;-0.44;92.02;100890.25;1727945;83;21137;-74
2021/01/15 08:29:45;;;;;;;21.30;12.03;;;;;;;-0.42;92.02;100885.78;1729547;81;21277;-74
2021/01/15 08:32:11;;;;;;;29.57;15.13;;;;;;;-0.42;92.02;100892.33;1727661;82;21180;-74
2021/01/15 08:34:38;;;;;;;26.73;13.28;;;;;;;-0.43;92.01;100894.56;1730212;81;21181;-75
2021/01/15 08:37:11;;;;;;;20.45;10.75;;;;;;;-0.41;92.01;100897.92;1732748;81;21159;-75
2021/01/15 08:39:55;;;;;;;18.45;10.45;;;;;;;-0.38;92.01;100897.75;1733017;80;21144;-75
2021/01/15 08:42:22;;;;;;;21.05;10.38;;;;;;;-0.37;92.03;100895.52;1733326;80;22217;-75
2021/01/15 08:44:51;;;;;;;17.35;9.18;;;;;;;-0.36;92.01;100900.67;1725161;81;21153;-75
2021/01/15 08:47:20;;;;;;;22.02;12.43;;;;;;;-0.35;92.03;100905.45;1745716;82;21185;-75
2021/01/15 08:49:57;;;;;;;24.25;12.15;;;;;;;-0.33;92.01;100906.20;1772117;80;21164;-75
2021/01/15 08:52:29;;;;;;;20.23;11.88;;;;;;;-0.34;92.01;100909.74;1753734;80;21207;-75
2021/01/15 08:54:56;;;;;;;23.55;12.65;;;;;;;-0.36;92.03;100914.23;1723587;83;22183;-75
2021/01/15 08:57:26;;;;;;;41.88;19.40;;;;;;;-0.35;92.02;100919.87;1746315;81;21578;-75
2021/01/15 08:59:53;;;;;;;33.83;17.05;;;;;;;-0.34;92.02;100918.91;1753202;81;21185;-75
2021/01/15 09:02:19;;;;;;;22.00;12.98;;;;;;;-0.33;92.01;100925.39;1747095;80;21156;-75
2021/01/15 09:04:45;;;;;;;22.60;12.90;;;;;;;-0.30;92.02;100927.83;1753710;81;21170;-75
2021/01/15 09:07:12;;;;;;;21.07;11.97;;;;;;;-0.30;91.99;100926.98;1764631;80;21204;-75
2021/01/15 09:09:39;;;;;;;26.10;13.40;;;;;;;-0.31;91.99;100926.59;1720673;81;21211;-75
2021/01/15 09:12:07;;;;;;;25.65;15.53;;;;;;;-0.30;92.01;100934.84;1780649;80;21612;-74
2021/01/15 09:14:35;;;;;;;31.52;16.00;;;;;;;-0.29;91.99;100940.01;1753692;81;21168;-75
2021/01/15 09:17:05;;;;;;;25.95;15.20;;;;;;;-0.26;91.98;100941.59;1734430;80;21128;-74
2021/01/15 09:19:32;;;;;;;36.20;19.35;;;;;;;-0.22;91.99;100940.50;1754946;80;21651;-74
2021/01/15 09:22:04;;;;;;;44.20;23.47;;;;;;;-0.24;91.99;100941.87;1753729;81;21186;-74
2021/01/15 09:24:33;;;;;;;24.43;14.10;;;;;;;-0.23;92.01;100945.35;1750811;81;21201;-74
2021/01/15 09:27:05;;;;;;;20.40;11.95;;;;;;;-0.22;92.01;100942.66;1719270;83;21131;-74
2021/01/15 09:29:33;;;;;;;22.02;12.73;;;;;;;-0.23;91.99;100951.91;1745140;80;21600;-74
2021/01/15 09:32:00;;;;;;;30.57;15.58;;;;;;;-0.19;91.98;100948.17;1748498;81;21287;-74
2021/01/15 09:34:27;;;;;;;21.15;11.97;;;;;;;-0.15;91.98;100952.31;1748565;81;21201;-75
2021/01/15 09:36:53;;;;;;;23.27;11.78;;;;;;;-0.10;91.98;100948.94;1748145;80;21576;-74
2021/01/15 09:42:03;;;;;;;25.52;13.35;;;;;;;0.04;91.99;100954.23;1794619;77;22739;-75
2021/01/15 09:44:30;;;;;;;27.93;12.82;;;;;;;0.03;91.98;100956.50;1756406;80;21179;-75
2021/01/15 09:47:00;;;;;;;18.45;9.65;;;;;;;0.08;91.97;100959.67;1782516;80;22192;-75
2021/01/15 09:49:27;;;;;;;22.00;10.93;;;;;;;0.10;91.96;100956.98;1777906;80;21563;-75
2021/01/15 09:51:53;;;;;;;25.95;13.08;;;;;;;0.15;91.96;100957.07;1762333;80;21139;-75
2021/01/15 09:54:20;;;;;;;23.67;11.55;;;;;;;0.25;91.95;100954.28;1769346;80;21237;-74
2021/01/15 09:56:47;;;;;;;22.00;10.60;;;;;;;0.27;91.92;100955.05;1763745;80;21104;-74
2021/01/15 09:59:15;;;;;;;26.62;12.40;;;;;;;0.27;91.93;100960.30;1769375;78;21202;-75
2021/01/15 10:01:45;;;;;;;25.32;13.30;;;;;;;0.25;91.92;100967.39;1763047;80;21182;-75
2021/01/15 10:04:11;;;;;;;25.20;12.50;;;;;;;0.22;91.92;100966.27;1783394;80;21172;-74
2021/01/15 10:06:38;;;;;;;24.05;12.58;;;;;;;0.20;91.90;100965.52;1761906;80;21119;-74
2021/01/15 10:09:06;;;;;;;31.75;13.85;;;;;;;0.14;91.88;100960.62;1769664;80;21156;-74
2021/01/15 10:11:34;;;;;;;37.45;15.48;;;;;;;0.12;91.86;100965.13;1770596;80;21968;-74
2021/01/15 10:14:04;;;;;;;172.00;45.73;;;;;;;0.10;91.83;100959.14;1758488;80;21568;-75
2021/01/15 10:16:30;;;;;;;76.57;30.55;;;;;;;0.15;91.83;100968.87;1773524;80;25872;-75
2021/01/15 10:18:57;;;;;;;32.75;15.70;;;;;;;0.16;91.79;100964.02;1755923;81;21163;-75
2021/01/15 10:21:26;;;;;;;42.00;22.87;;;;;;;0.19;91.78;100966.45;1761549;80;21132;-75
2021/01/15 10:23:52;;;;;;;41.97;19.40;;;;;;;0.19;91.75;100962.52;1773501;80;21182;-75
2021/01/15 10:26:31;;;;;;;39.63;17.82;;;;;;;0.22;91.75;100970.20;1760277;80;21335;-75
2021/01/15 10:29:05;;;;;;;27.47;14.10;;;;;;;0.27;91.71;100969.94;1764682;80;21203;-75
2021/01/15 10:31:35;;;;;;;128.20;51.90;;;;;;;0.25;91.71;100970.02;1778011;80;21532;-75
2021/01/15 10:34:02;;;;;;;126.78;60.23;;;;;;;0.24;91.71;100972.28;1774766;80;21107;-75
2021/01/15 10:36:29;;;;;;;63.92;29.98;;;;;;;0.19;91.66;100967.77;1780821;80;21265;-75
2021/01/15 10:38:55;;;;;;;44.48;23.62;;;;;;;0.17;91.66;100969.64;1764812;80;21372;-75
2021/01/15 10:41:32;;;;;;;33.10;16.93;;;;;;;0.14;91.62;100969.80;1785178;80;21163;-75
2021/01/15 10:43:59;;;;;;;35.28;17.37;;;;;;;0.10;91.59;100968.31;1792361;80;21111;-75
2021/01/15 10:46:36;;;;;;;32.80;16.93;;;;;;;0.08;91.55;100970.62;1764974;80;21559;-75
2021/01/15 10:49:10;;;;;;;26.10;15.15;;;;;;;0.06;91.49;100969.42;1778559;80;21229;-75
2021/01/15 10:51:42;;;;;;;36.23;18.82;;;;;;;0.10;91.48;100966.16;1761940;80;21108;-75
2021/01/15 10:54:09;;;;;;;38.23;19.23;;;;;;;0.12;91.46;100965.59;1760969;80;21107;-75
2021/01/15 10:56:40;;;;;;;40.80;18.45;;;;;;;0.19;91.42;100975.63;1763840;80;21102;-75
2021/01/15 10:59:07;;;;;;;34.90;17.02;;;;;;;0.21;91.41;100968.50;1776449;80;21139;-75
2021/01/15 11:01:41;;;;;;;21.87;10.60;;;;;;;0.23;91.37;100976.30;1793167;80;21517;-75
2021/01/15 11:04:08;;;;;;;29.00;13.43;;;;;;;0.25;91.38;100970.02;1792983;80;21095;-76
2021/01/15 11:06:36;;;;;;;25.57;13.70;;;;;;;0.26;91.36;100970.86;1780239;80;21120;-76
2021/01/15 11:09:03;;;;;;;20.55;10.35;;;;;;;0.24;91.30;100971.44;1776816;80;21112;-75
2021/01/15 11:11:30;;;;;;;37.40;15.72;;;;;;;0.24;91.31;100969.66;1769833;78;21527;-75
2021/01/15 11:13:57;;;;;;;32.23;13.90;;;;;;;0.27;91.28;100962.07;1761839;81;21214;-75
2021/01/15 11:16:23;;;;;;;36.10;14.33;;;;;;;0.35;91.23;100960.66;1774296;80;21540;-75
2021/01/15 11:18:50;;;;;;;36.93;14.43;;;;;;;0.38;91.22;100957.88;1764960;80;21124;-76
2021/01/15 11:21:24;;;;;;;38.90;20.27;;;;;;;0.43;91.18;100963.69;1762319;81;21111;-75
2021/01/15 11:23:50;;;;;;;23.83;12.55;;;;;;;0.48;91.16;100970.83;1762444;81;21138;-75
2021/01/15 11:26:27;;;;;;;31.62;14.07;;;;;;;0.47;91.13;100965.19;1762354;81;22058;-76
2021/01/15 11:29:08;;;;;;;24.10;12.82;;;;;;;0.46;91.09;100966.12;1788931;79;23394;-75
2021/01/15 11:31:37;;;;;;;23.67;11.30;;;;;;;0.39;91.04;100963.48;1770221;79;21195;-75
2021/01/15 11:34:03;;;;;;;25.88;13.50;;;;;;;0.42;91.00;100957.23;1794325;79;21186;-75
2021/01/15 11:39:10;;;;;;;51.13;19.60;;;;;;;0.47;90.95;100961.25;1802635;79;22531;-75